Terminal Aerodrome Forecast
Issued by NWS

Home | Current Version | Previous Version | Text Only | Print | Product List | Glossary On
Versions: 1 2 3 4 5 6 7 8 9 10 11 12 13 14 15 16 17 18 19 20
000
FTUS44 KCRP 261126
TAFALI
TAF
KALI 261126Z 2612/2712 08004KT P6SM FEW025 BKN050
      TEMPO 2612/2614 BKN025
     FM261500 14010G15KT P6SM BKN025
     FM261900 16015G20KT P6SM VCSH SCT035 BKN250
     FM262300 17011KT P6SM OVC050
     FM270500 17006KT 5SM BR BKN008=

USA.gov is the U.S. government's official web portal to all federal, state and local government web resources and services.